sensor_id;sensor_type;location;lat;lon;timestamp;pressure;altitude;pressure_sealevel;temperature;humidity
77869;BME280;67231;59.144;37.934;2023-11-21T00:00:51;100330.25;;;-8.19;69.97
77869;BME280;67231;59.144;37.934;2023-11-21T00:03:17;100329.41;;;-8.18;69.41
77869;BME280;67231;59.144;37.934;2023-11-21T00:05:45;100322.50;;;-8.16;69.64
77869;BME280;67231;59.144;37.934;2023-11-21T00:08:11;100317.38;;;-8.17;69.82
77869;BME280;67231;59.144;37.934;2023-11-21T00:10:38;100323.38;;;-8.17;70.18
77869;BME280;67231;59.144;37.934;2023-11-21T00:13:05;100322.50;;;-8.17;69.88
77869;BME280;67231;59.144;37.934;2023-11-21T00:15:31;100325.91;;;-8.15;69.69
77869;BME280;67231;59.144;37.934;2023-11-21T00:17:58;100322.44;;;-8.13;69.37
77869;BME280;67231;59.144;37.934;2023-11-21T00:20:24;100314.66;;;-8.10;69.24
77869;BME280;67231;59.144;37.934;2023-11-21T00:22:51;100305.31;;;-8.15;69.28
77869;BME280;67231;59.144;37.934;2023-11-21T00:25:18;100310.44;;;-8.14;69.57
77869;BME280;67231;59.144;37.934;2023-11-21T00:27:44;100307.94;;;-8.17;69.42
77869;BME280;67231;59.144;37.934;2023-11-21T00:30:12;100307.09;;;-8.19;69.59
77869;BME280;67231;59.144;37.934;2023-11-21T00:32:39;100302.84;;;-8.20;69.73
77869;BME280;67231;59.144;37.934;2023-11-21T00:35:06;100307.09;;;-8.19;69.14
77869;BME280;67231;59.144;37.934;2023-11-21T00:37:33;100306.28;;;-8.21;69.54
77869;BME280;67231;59.144;37.934;2023-11-21T00:39:59;100305.47;;;-8.23;69.14
77869;BME280;67231;59.144;37.934;2023-11-21T00:42:26;100299.47;;;-8.25;68.87
77869;BME280;67231;59.144;37.934;2023-11-21T00:44:53;100309.81;;;-8.28;68.89
77869;BME280;67231;59.144;37.934;2023-11-21T00:47:19;100303.03;;;-8.32;68.52
77869;BME280;67231;59.144;37.934;2023-11-21T00:49:46;100297.09;;;-8.34;68.77
77869;BME280;67231;59.144;37.934;2023-11-21T00:52:12;100303.13;;;-8.37;69.20
77869;BME280;67231;59.144;37.934;2023-11-21T00:54:39;100296.31;;;-8.41;68.70
77869;BME280;67231;59.144;37.934;2023-11-21T00:57:05;100304.91;;;-8.40;68.74
77869;BME280;67231;59.144;37.934;2023-11-21T00:59:32;100292.91;;;-8.42;68.86
77869;BME280;67231;59.144;37.934;2023-11-21T01:01:58;100294.72;;;-8.45;68.69
77869;BME280;67231;59.144;37.934;2023-11-21T01:04:26;100287.03;;;-8.48;68.87
77869;BME280;67231;59.144;37.934;2023-11-21T01:06:54;100288.75;;;-8.47;68.41
77869;BME280;67231;59.144;37.934;2023-11-21T01:09:21;100304.22;;;-8.49;68.31
77869;BME280;67231;59.144;37.934;2023-11-21T01:11:47;100293.94;;;-8.50;68.39
77869;BME280;67231;59.144;37.934;2023-11-21T01:14:18;100291.34;;;-8.49;68.36
77869;BME280;67231;59.144;37.934;2023-11-21T01:16:44;100290.47;;;-8.49;68.50
77869;BME280;67231;59.144;37.934;2023-11-21T01:19:10;100296.53;;;-8.52;68.51
77869;BME280;67231;59.144;37.934;2023-11-21T01:21:37;100294.00;;;-8.53;68.92
77869;BME280;67231;59.144;37.934;2023-11-21T01:24:03;100299.97;;;-8.51;68.45
77869;BME280;67231;59.144;37.934;2023-11-21T01:26:33;100283.81;;;-8.59;68.70
77869;BME280;67231;59.144;37.934;2023-11-21T01:29:01;100291.50;;;-8.58;68.59
77869;BME280;67231;59.144;37.934;2023-11-21T01:31:28;100293.25;;;-8.60;68.08
77869;BME280;67231;59.144;37.934;2023-11-21T01:33:56;100294.03;;;-8.56;68.78
77869;BME280;67231;59.144;37.934;2023-11-21T01:36:22;100298.34;;;-8.57;68.02
77869;BME280;67231;59.144;37.934;2023-11-21T01:38:48;100291.44;;;-8.55;68.16
77869;BME280;67231;59.144;37.934;2023-11-21T01:41:16;100289.72;;;-8.54;67.94
77869;BME280;67231;59.144;37.934;2023-11-21T01:43:42;100294.88;;;-8.56;67.98
77869;BME280;67231;59.144;37.934;2023-11-21T01:46:09;100291.56;;;-8.63;68.18
77869;BME280;67231;59.144;37.934;2023-11-21T01:48:36;100292.44;;;-8.64;68.21
77869;BME280;67231;59.144;37.934;2023-11-21T01:51:03;100286.44;;;-8.64;67.60
77869;BME280;67231;59.144;37.934;2023-11-21T01:53:31;100281.31;;;-8.64;68.03
77869;BME280;67231;59.144;37.934;2023-11-21T01:55:57;100297.56;;;-8.64;67.51
77869;BME280;67231;59.144;37.934;2023-11-21T01:58:25;100286.41;;;-8.61;67.94
77869;BME280;67231;59.144;37.934;2023-11-21T02:00:52;100291.56;;;-8.63;67.62
77869;BME280;67231;59.144;37.934;2023-11-21T02:03:21;100294.16;;;-8.64;67.01
77869;BME280;67231;59.144;37.934;2023-11-21T02:05:48;100289.81;;;-8.61;66.89
77869;BME280;67231;59.144;37.934;2023-11-21T02:08:15;100296.63;;;-8.58;67.23
77869;BME280;67231;59.144;37.934;2023-11-21T02:10:43;100306.94;;;-8.58;66.58
77869;BME280;67231;59.144;37.934;2023-11-21T02:13:10;100300.09;;;-8.61;66.66
77869;BME280;67231;59.144;37.934;2023-11-21T02:15:37;100298.41;;;-8.60;66.24
77869;BME280;67231;59.144;37.934;2023-11-21T02:18:05;100288.91;;;-8.56;66.17
77869;BME280;67231;59.144;37.934;2023-11-21T02:20:32;100304.31;;;-8.55;66.54
77869;BME280;67231;59.144;37.934;2023-11-21T02:23:01;100297.44;;;-8.54;65.99
77869;BME280;67231;59.144;37.934;2023-11-21T02:25:32;100293.13;;;-8.54;66.11
77869;BME280;67231;59.144;37.934;2023-11-21T02:28:01;100291.44;;;-8.55;66.10
77869;BME280;67231;59.144;37.934;2023-11-21T02:30:30;100289.69;;;-8.53;66.92
77869;BME280;67231;59.144;37.934;2023-11-21T02:33:01;100298.28;;;-8.54;66.67
77869;BME280;67231;59.144;37.934;2023-11-21T02:35:27;100301.69;;;-8.52;66.77
77869;BME280;67231;59.144;37.934;2023-11-21T02:37:54;100293.13;;;-8.54;66.58
77869;BME280;67231;59.144;37.934;2023-11-21T02:40:21;100288.03;;;-8.55;66.35
77869;BME280;67231;59.144;37.934;2023-11-21T02:42:47;100297.38;;;-8.51;66.94
77869;BME280;67231;59.144;37.934;2023-11-21T02:45:15;100292.19;;;-8.48;66.57
77869;BME280;67231;59.144;37.934;2023-11-21T02:47:45;100288.72;;;-8.46;66.90
77869;BME280;67231;59.144;37.934;2023-11-21T02:50:12;100295.63;;;-8.49;66.95
77869;BME280;67231;59.144;37.934;2023-11-21T02:52:39;100287.94;;;-8.51;67.14
77869;BME280;67231;59.144;37.934;2023-11-21T02:55:06;100281.94;;;-8.50;66.87
77869;BME280;67231;59.144;37.934;2023-11-21T02:57:33;100281.91;;;-8.48;67.61
77869;BME280;67231;59.144;37.934;2023-11-21T03:00:00;100283.59;;;-8.47;67.04
77869;BME280;67231;59.144;37.934;2023-11-21T03:02:32;100287.09;;;-8.51;66.96
77869;BME280;67231;59.144;37.934;2023-11-21T03:04:58;100274.31;;;-8.56;67.21
77869;BME280;67231;59.144;37.934;2023-11-21T03:07:24;100269.16;;;-8.56;67.44
77869;BME280;67231;59.144;37.934;2023-11-21T03:09:52;100278.63;;;-8.58;67.13
77869;BME280;67231;59.144;37.934;2023-11-21T03:12:18;100274.31;;;-8.57;67.23
77869;BME280;67231;59.144;37.934;2023-11-21T03:14:45;100278.59;;;-8.55;67.40
77869;BME280;67231;59.144;37.934;2023-11-21T03:17:12;100273.50;;;-8.58;67.52
77869;BME280;67231;59.144;37.934;2023-11-21T03:19:38;100281.16;;;-8.55;67.37
77869;BME280;67231;59.144;37.934;2023-11-21T03:22:04;100289.72;;;-8.54;67.74
77869;BME280;67231;59.144;37.934;2023-11-21T03:24:31;100286.25;;;-8.52;67.56
77869;BME280;67231;59.144;37.934;2023-11-21T03:26:57;100279.38;;;-8.51;67.42
77869;BME280;67231;59.144;37.934;2023-11-21T03:29:24;100279.31;;;-8.47;67.71
77869;BME280;67231;59.144;37.934;2023-11-21T03:31:50;100269.91;;;-8.49;67.38
77869;BME280;67231;59.144;37.934;2023-11-21T03:34:24;100267.31;;;-8.49;67.37
77869;BME280;67231;59.144;37.934;2023-11-21T03:36:52;100276.78;;;-8.50;67.92
77869;BME280;67231;59.144;37.934;2023-11-21T03:39:22;100272.44;;;-8.48;67.91
77869;BME280;67231;59.144;37.934;2023-11-21T03:41:49;100269.91;;;-8.51;67.81
77869;BME280;67231;59.144;37.934;2023-11-21T03:44:18;100278.50;;;-8.50;67.58
77869;BME280;67231;59.144;37.934;2023-11-21T03:46:45;100274.19;;;-8.48;67.41
77869;BME280;67231;59.144;37.934;2023-11-21T03:49:13;100281.00;;;-8.46;67.56
77869;BME280;67231;59.144;37.934;2023-11-21T03:51:41;100290.41;;;-8.45;67.78
77869;BME280;67231;59.144;37.934;2023-11-21T03:54:08;100269.81;;;-8.45;66.84
77869;BME280;67231;59.144;37.934;2023-11-21T03:56:34;100269.81;;;-8.45;67.58
77869;BME280;67231;59.144;37.934;2023-11-21T03:59:01;100268.88;;;-8.40;67.37
77869;BME280;67231;59.144;37.934;2023-11-21T04:01:27;100279.16;;;-8.40;67.74
77869;BME280;67231;59.144;37.934;2023-11-21T04:03:53;100285.25;;;-8.43;67.65
77869;BME280;67231;59.144;37.934;2023-11-21T04:06:20;100272.41;;;-8.45;67.65
77869;BME280;67231;59.144;37.934;2023-11-21T04:08:46;100269.84;;;-8.46;67.93
77869;BME280;67231;59.144;37.934;2023-11-21T04:11:13;100274.88;;;-8.42;67.83
77869;BME280;67231;59.144;37.934;2023-11-21T04:13:40;100268.00;;;-8.41;67.73
77869;BME280;67231;59.144;37.934;2023-11-21T04:16:07;100267.97;;;-8.38;67.95
77869;BME280;67231;59.144;37.934;2023-11-21T04:18:37;100262.84;;;-8.39;67.77
77869;BME280;67231;59.144;37.934;2023-11-21T04:21:05;100255.97;;;-8.37;68.08
77869;BME280;67231;59.144;37.934;2023-11-21T04:23:32;100264.50;;;-8.35;67.98
77869;BME280;67231;59.144;37.934;2023-11-21T04:25:58;100258.47;;;-8.34;68.12
77869;BME280;67231;59.144;37.934;2023-11-21T04:28:25;100257.63;;;-8.36;68.19
77869;BME280;67231;59.144;37.934;2023-11-21T04:30:51;100255.91;;;-8.34;68.70
77869;BME280;67231;59.144;37.934;2023-11-21T04:33:18;100259.34;;;-8.35;67.89
77869;BME280;67231;59.144;37.934;2023-11-21T04:35:44;100265.34;;;-8.35;68.13
77869;BME280;67231;59.144;37.934;2023-11-21T04:38:10;100266.19;;;-8.33;68.83
77869;BME280;67231;59.144;37.934;2023-11-21T04:40:37;100261.94;;;-8.37;67.87
77869;BME280;67231;59.144;37.934;2023-11-21T04:43:03;100267.09;;;-8.37;68.18
77869;BME280;67231;59.144;37.934;2023-11-21T04:45:30;100267.06;;;-8.35;67.81
77869;BME280;67231;59.144;37.934;2023-11-21T04:47:56;100262.69;;;-8.30;68.35
77869;BME280;67231;59.144;37.934;2023-11-21T04:50:23;100268.59;;;-8.25;67.70
77869;BME280;67231;59.144;37.934;2023-11-21T04:52:49;100269.41;;;-8.21;67.84
77869;BME280;67231;59.144;37.934;2023-11-21T04:55:16;100267.69;;;-8.21;68.31
77869;BME280;67231;59.144;37.934;2023-11-21T04:57:42;100269.41;;;-8.21;68.09
77869;BME280;67231;59.144;37.934;2023-11-21T05:00:09;100274.59;;;-8.25;68.50
77869;BME280;67231;59.144;37.934;2023-11-21T05:02:36;100270.28;;;-8.24;67.67
77869;BME280;67231;59.144;37.934;2023-11-21T05:05:05;100275.44;;;-8.24;68.06
77869;BME280;67231;59.144;37.934;2023-11-21T05:07:32;100278.84;;;-8.22;67.92
77869;BME280;67231;59.144;37.934;2023-11-21T05:09:59;100287.44;;;-8.21;67.72
77869;BME280;67231;59.144;37.934;2023-11-21T05:12:25;100277.97;;;-8.21;67.69
77869;BME280;67231;59.144;37.934;2023-11-21T05:14:52;100277.13;;;-8.21;67.90
77869;BME280;67231;59.144;37.934;2023-11-21T05:17:18;100261.69;;;-8.21;67.44
77869;BME280;67231;59.144;37.934;2023-11-21T05:19:44;100271.13;;;-8.22;67.35
77869;BME280;67231;59.144;37.934;2023-11-21T05:22:14;100263.38;;;-8.22;67.80
77869;BME280;67231;59.144;37.934;2023-11-21T05:24:41;100265.97;;;-8.22;67.58
77869;BME280;67231;59.144;37.934;2023-11-21T05:27:07;100265.06;;;-8.19;67.72
77869;BME280;67231;59.144;37.934;2023-11-21T05:29:36;100273.63;;;-8.19;67.58
77869;BME280;67231;59.144;37.934;2023-11-21T05:32:04;100268.47;;;-8.19;67.85
77869;BME280;67231;59.144;37.934;2023-11-21T05:34:30;100279.66;;;-8.18;67.63
77869;BME280;67231;59.144;37.934;2023-11-21T05:36:57;100277.09;;;-8.20;68.19
77869;BME280;67231;59.144;37.934;2023-11-21T05:39:24;100283.88;;;-8.16;67.70
77869;BME280;67231;59.144;37.934;2023-11-21T05:41:51;100280.41;;;-8.13;68.16
77869;BME280;67231;59.144;37.934;2023-11-21T05:44:17;100290.69;;;-8.12;67.87
77869;BME280;67231;59.144;37.934;2023-11-21T05:46:44;100294.06;;;-8.10;68.20
77869;BME280;67231;59.144;37.934;2023-11-21T05:49:10;100291.47;;;-8.08;67.89
77869;BME280;67231;59.144;37.934;2023-11-21T05:51:37;100292.31;;;-8.08;67.82
77869;BME280;67231;59.144;37.934;2023-11-21T05:54:04;100293.97;;;-8.03;67.73
77869;BME280;67231;59.144;37.934;2023-11-21T05:56:31;100304.22;;;-8.00;67.88
77869;BME280;67231;59.144;37.934;2023-11-21T05:58:57;100299.81;;;-7.95;67.79
77869;BME280;67231;59.144;37.934;2023-11-21T06:01:24;100304.03;;;-7.91;68.48
77869;BME280;67231;59.144;37.934;2023-11-21T06:03:50;100292.00;;;-7.91;68.17
77869;BME280;67231;59.144;37.934;2023-11-21T06:06:17;100291.16;;;-7.91;68.15
77869;BME280;67231;59.144;37.934;2023-11-21T06:08:45;100286.00;;;-7.90;68.16
77869;BME280;67231;59.144;37.934;2023-11-21T06:11:11;100291.94;;;-7.86;67.71
77869;BME280;67231;59.144;37.934;2023-11-21T06:13:38;100284.16;;;-7.84;67.98
77869;BME280;67231;59.144;37.934;2023-11-21T06:16:04;100291.88;;;-7.83;68.00
77869;BME280;67231;59.144;37.934;2023-11-21T06:18:31;100293.53;;;-7.82;68.12
77869;BME280;67231;59.144;37.934;2023-11-21T06:20:57;100299.59;;;-7.83;68.70
77869;BME280;67231;59.144;37.934;2023-11-21T06:23:24;100301.22;;;-7.79;68.05
77869;BME280;67231;59.144;37.934;2023-11-21T06:25:51;100291.66;;;-7.74;68.07
77869;BME280;67231;59.144;37.934;2023-11-21T06:28:17;100303.66;;;-7.71;68.09
77869;BME280;67231;59.144;37.934;2023-11-21T06:30:44;100308.84;;;-7.73;68.15
77869;BME280;67231;59.144;37.934;2023-11-21T06:33:11;100307.88;;;-7.67;68.09
77869;BME280;67231;59.144;37.934;2023-11-21T06:35:37;100303.56;;;-7.66;68.50
77869;BME280;67231;59.144;37.934;2023-11-21T06:38:04;100300.16;;;-7.67;68.22
77869;BME280;67231;59.144;37.934;2023-11-21T06:40:30;100310.44;;;-7.65;68.37
77869;BME280;67231;59.144;37.934;2023-11-21T06:42:57;100308.66;;;-7.63;68.43
77869;BME280;67231;59.144;37.934;2023-11-21T06:45:24;100312.97;;;-7.64;68.76
77869;BME280;67231;59.144;37.934;2023-11-21T06:47:51;100309.50;;;-7.63;68.32
77869;BME280;67231;59.144;37.934;2023-11-21T06:50:18;100312.06;;;-7.63;67.79
77869;BME280;67231;59.144;37.934;2023-11-21T06:52:44;100305.16;;;-7.61;68.38
77869;BME280;67231;59.144;37.934;2023-11-21T06:55:11;100298.28;;;-7.60;68.64
77869;BME280;67231;59.144;37.934;2023-11-21T06:57:38;100296.47;;;-7.55;68.28
77869;BME280;67231;59.144;37.934;2023-11-21T07:00:05;100298.13;;;-7.51;68.32
77869;BME280;67231;59.144;37.934;2023-11-21T07:02:33;100303.22;;;-7.50;67.91
77869;BME280;67231;59.144;37.934;2023-11-21T07:05:00;100301.44;;;-7.46;68.55
77869;BME280;67231;59.144;37.934;2023-11-21T07:07:27;100307.47;;;-7.47;67.95
77869;BME280;67231;59.144;37.934;2023-11-21T07:09:54;100302.28;;;-7.45;68.48
77869;BME280;67231;59.144;37.934;2023-11-21T07:12:20;100299.63;;;-7.41;68.25
77869;BME280;67231;59.144;37.934;2023-11-21T07:14:49;100308.06;;;-7.34;67.95
77869;BME280;67231;59.144;37.934;2023-11-21T07:17:16;100315.72;;;-7.31;68.05
77869;BME280;67231;59.144;37.934;2023-11-21T07:19:43;100314.91;;;-7.32;68.56
77869;BME280;67231;59.144;37.934;2023-11-21T07:22:10;100311.41;;;-7.30;68.67
77869;BME280;67231;59.144;37.934;2023-11-21T07:24:37;100309.72;;;-7.30;68.25
77869;BME280;67231;59.144;37.934;2023-11-21T07:27:03;100312.25;;;-7.28;68.17
77869;BME280;67231;59.144;37.934;2023-11-21T07:29:30;100320.63;;;-7.19;67.99
77869;BME280;67231;59.144;37.934;2023-11-21T07:31:57;100315.41;;;-7.16;68.23
77869;BME280;67231;59.144;37.934;2023-11-21T07:34:23;100305.03;;;-7.12;68.17
77869;BME280;67231;59.144;37.934;2023-11-21T07:36:50;100311.97;;;-7.16;68.45
77869;BME280;67231;59.144;37.934;2023-11-21T07:39:16;100315.34;;;-7.12;67.72
77869;BME280;67231;59.144;37.934;2023-11-21T07:41:43;100314.31;;;-7.05;67.49
77869;BME280;67231;59.144;37.934;2023-11-21T07:44:18;100310.84;;;-7.03;68.03
77869;BME280;67231;59.144;37.934;2023-11-21T07:46:47;100311.78;;;-7.07;67.43
77869;BME280;67231;59.144;37.934;2023-11-21T07:49:16;100314.28;;;-7.04;67.30
77869;BME280;67231;59.144;37.934;2023-11-21T07:51:43;100309.97;;;-7.03;67.84
77869;BME280;67231;59.144;37.934;2023-11-21T07:54:10;100320.25;;;-7.02;67.19
77869;BME280;67231;59.144;37.934;2023-11-21T07:56:36;100320.41;;;-7.09;67.51
77869;BME280;67231;59.144;37.934;2023-11-21T07:59:02;100327.38;;;-7.13;67.15
77869;BME280;67231;59.144;37.934;2023-11-21T08:01:29;100326.56;;;-7.15;66.88
77869;BME280;67231;59.144;37.934;2023-11-21T08:03:55;100328.28;;;-7.14;66.98
77869;BME280;67231;59.144;37.934;2023-11-21T08:06:25;100328.13;;;-7.08;67.44
77869;BME280;67231;59.144;37.934;2023-11-21T08:08:52;100326.38;;;-7.06;67.30
77869;BME280;67231;59.144;37.934;2023-11-21T08:11:18;100326.63;;;-7.18;67.54
77869;BME280;67231;59.144;37.934;2023-11-21T08:13:45;100335.47;;;-7.28;67.08
77869;BME280;67231;59.144;37.934;2023-11-21T08:16:12;100328.78;;;-7.39;67.09
77869;BME280;67231;59.144;37.934;2023-11-21T08:18:38;100333.25;;;-7.47;67.23
77869;BME280;67231;59.144;37.934;2023-11-21T08:21:06;100327.34;;;-7.52;67.39
77869;BME280;67231;59.144;37.934;2023-11-21T08:23:32;100329.16;;;-7.57;67.41
77869;BME280;67231;59.144;37.934;2023-11-21T08:25:58;100333.53;;;-7.62;67.50
77869;BME280;67231;59.144;37.934;2023-11-21T08:28:25;100322.19;;;-7.52;66.82
77869;BME280;67231;59.144;37.934;2023-11-21T08:30:54;100322.00;;;-7.43;67.47
77869;BME280;67231;59.144;37.934;2023-11-21T08:33:20;100325.28;;;-7.36;66.55
77869;BME280;67231;59.144;37.934;2023-11-21T08:35:46;100327.16;;;-7.43;66.65
77869;BME280;67231;59.144;37.934;2023-11-21T08:38:13;100322.97;;;-7.48;66.61
77869;BME280;67231;59.144;37.934;2023-11-21T08:40:39;100327.34;;;-7.52;66.90
77869;BME280;67231;59.144;37.934;2023-11-21T08:43:06;100314.31;;;-7.44;65.96
77869;BME280;67231;59.144;37.934;2023-11-21T08:45:33;100318.53;;;-7.42;65.98
77869;BME280;67231;59.144;37.934;2023-11-21T08:48:01;100317.75;;;-7.45;65.84
77869;BME280;67231;59.144;37.934;2023-11-21T08:50:29;100316.19;;;-7.53;65.55
77869;BME280;67231;59.144;37.934;2023-11-21T08:52:55;100311.94;;;-7.55;65.32
77869;BME280;67231;59.144;37.934;2023-11-21T08:55:22;100318.78;;;-7.54;65.15
77869;BME280;67231;59.144;37.934;2023-11-21T08:57:48;100313.63;;;-7.54;65.52
77869;BME280;67231;59.144;37.934;2023-11-21T09:00:15;100317.13;;;-7.58;65.32
77869;BME280;67231;59.144;37.934;2023-11-21T09:02:44;100325.84;;;-7.64;64.93
77869;BME280;67231;59.144;37.934;2023-11-21T09:05:12;100319.13;;;-7.73;65.38
77869;BME280;67231;59.144;37.934;2023-11-21T09:07:41;100337.31;;;-7.80;64.65
77869;BME280;67231;59.144;37.934;2023-11-21T09:10:08;100334.06;;;-7.90;65.02
77869;BME280;67231;59.144;37.934;2023-11-21T09:12:37;100326.44;;;-7.96;64.46
77869;BME280;67231;59.144;37.934;2023-11-21T09:15:06;100327.38;;;-8.00;64.15
77869;BME280;67231;59.144;37.934;2023-11-21T09:17:33;100323.16;;;-8.05;63.76
77869;BME280;67231;59.144;37.934;2023-11-21T09:20:04;100328.25;;;-8.01;63.82
77869;BME280;67231;59.144;37.934;2023-11-21T09:22:32;100323.03;;;-7.98;63.67
77869;BME280;67231;59.144;37.934;2023-11-21T09:24:59;100321.38;;;-8.01;63.38
77869;BME280;67231;59.144;37.934;2023-11-21T09:27:26;100329.22;;;-8.07;63.49
77869;BME280;67231;59.144;37.934;2023-11-21T09:29:52;100310.41;;;-8.12;63.78
77869;BME280;67231;59.144;37.934;2023-11-21T09:32:20;100320.72;;;-8.14;63.31
77869;BME280;67231;59.144;37.934;2023-11-21T09:34:49;100322.56;;;-8.20;63.66
77869;BME280;67231;59.144;37.934;2023-11-21T09:37:17;100319.09;;;-8.18;63.60
77869;BME280;67231;59.144;37.934;2023-11-21T09:39:44;100316.53;;;-8.18;64.00
77869;BME280;67231;59.144;37.934;2023-11-21T09:42:17;100314.72;;;-8.13;63.74
77869;BME280;67231;59.144;37.934;2023-11-21T09:44:51;100314.63;;;-8.07;63.54
77869;BME280;67231;59.144;37.934;2023-11-21T09:47:22;100316.19;;;-7.99;63.39
77869;BME280;67231;59.144;37.934;2023-11-21T09:49:49;100312.59;;;-7.89;63.61
77869;BME280;67231;59.144;37.934;2023-11-21T09:52:26;100321.69;;;-7.71;63.65
77869;BME280;67231;59.144;37.934;2023-11-21T09:54:53;100322.28;;;-7.58;63.17
77869;BME280;67231;59.144;37.934;2023-11-21T09:57:21;100324.69;;;-7.49;63.58
77869;BME280;67231;59.144;37.934;2023-11-21T09:59:54;100325.31;;;-7.38;63.89
77869;BME280;67231;59.144;37.934;2023-11-21T10:02:25;100332.31;;;-7.43;63.69
77869;BME280;67231;59.144;37.934;2023-11-21T10:04:52;100327.44;;;-7.58;63.68
77869;BME280;67231;59.144;37.934;2023-11-21T10:07:20;100331.25;;;-7.78;64.19
77869;BME280;67231;59.144;37.934;2023-11-21T10:09:47;100329.84;;;-7.94;63.59
77869;BME280;67231;59.144;37.934;2023-11-21T10:12:17;100330.06;;;-8.07;63.76
77869;BME280;67231;59.144;37.934;2023-11-21T10:14:48;100332.59;;;-8.05;63.58
77869;BME280;67231;59.144;37.934;2023-11-21T10:17:17;100333.19;;;-7.89;63.78
77869;BME280;67231;59.144;37.934;2023-11-21T10:19:46;100353.44;;;-7.71;62.87
77869;BME280;67231;59.144;37.934;2023-11-21T10:22:14;100339.84;;;-7.79;63.14
77869;BME280;67231;59.144;37.934;2023-11-21T10:24:42;100352.81;;;-7.83;63.37
77869;BME280;67231;59.144;37.934;2023-11-21T10:27:09;100349.50;;;-7.90;63.37
77869;BME280;67231;59.144;37.934;2023-11-21T10:29:36;100351.31;;;-7.95;63.85
77869;BME280;67231;59.144;37.934;2023-11-21T10:32:02;100350.66;;;-8.07;63.85
77869;BME280;67231;59.144;37.934;2023-11-21T10:34:29;100361.13;;;-8.17;64.08
77869;BME280;67231;59.144;37.934;2023-11-21T10:36:56;100363.66;;;-8.14;64.07
77869;BME280;67231;59.144;37.934;2023-11-21T10:39:24;100352.41;;;-8.09;63.81
77869;BME280;67231;59.144;37.934;2023-11-21T10:41:56;100365.28;;;-8.09;63.89
77869;BME280;67231;59.144;37.934;2023-11-21T10:44:23;100374.66;;;-8.05;63.79
77869;BME280;67231;59.144;37.934;2023-11-21T10:46:51;100367.91;;;-8.12;63.27
77869;BME280;67231;59.144;37.934;2023-11-21T10:49:20;100363.59;;;-8.11;63.56
77869;BME280;67231;59.144;37.934;2023-11-21T10:51:46;100354.97;;;-8.07;63.42
77869;BME280;67231;59.144;37.934;2023-11-21T10:54:22;100365.97;;;-7.97;63.39
77869;BME280;67231;59.144;37.934;2023-11-21T10:56:50;100363.31;;;-7.94;63.44
77869;BME280;67231;59.144;37.934;2023-11-21T10:59:17;100364.28;;;-8.01;63.25
77869;BME280;67231;59.144;37.934;2023-11-21T11:01:45;100371.16;;;-8.00;63.42
77869;BME280;67231;59.144;37.934;2023-11-21T11:04:12;100371.94;;;-7.97;63.14
77869;BME280;67231;59.144;37.934;2023-11-21T11:06:43;100367.59;;;-7.93;63.26
77869;BME280;67231;59.144;37.934;2023-11-21T11:09:13;100364.25;;;-7.98;63.78
77869;BME280;67231;59.144;37.934;2023-11-21T11:11:40;100372.97;;;-8.06;63.58
77869;BME280;67231;59.144;37.934;2023-11-21T11:14:13;100375.56;;;-8.07;63.42
77869;BME280;67231;59.144;37.934;2023-11-21T11:16:41;100369.47;;;-8.03;63.05
77869;BME280;67231;59.144;37.934;2023-11-21T11:19:10;100377.31;;;-8.11;63.62
77869;BME280;67231;59.144;37.934;2023-11-21T11:24:57;100391.47;;;-8.38;63.97
77869;BME280;67231;59.144;37.934;2023-11-21T11:27:52;100366.78;;;-8.47;64.16
77869;BME280;67231;59.144;37.934;2023-11-21T11:35:50;100356.66;;;-8.59;64.37
77869;BME280;67231;59.144;37.934;2023-11-21T11:38:23;100360.94;;;-8.56;64.69
77869;BME280;67231;59.144;37.934;2023-11-21T11:40:53;100371.19;;;-8.55;64.40
77869;BME280;67231;59.144;37.934;2023-11-21T11:43:26;100372.00;;;-8.53;64.66
77869;BME280;67231;59.144;37.934;2023-11-21T11:45:57;100375.41;;;-8.51;64.52
77869;BME280;67231;59.144;37.934;2023-11-21T11:48:25;100366.06;;;-8.55;64.65
77869;BME280;67231;59.144;37.934;2023-11-21T11:51:06;100370.41;;;-8.58;64.71
77869;BME280;67231;59.144;37.934;2023-11-21T11:53:37;100360.16;;;-8.62;65.01
77869;BME280;67231;59.144;37.934;2023-11-21T11:56:26;100366.97;;;-8.59;64.71
77869;BME280;67231;59.144;37.934;2023-11-21T11:58:55;100357.63;;;-8.65;65.43
77869;BME280;67231;59.144;37.934;2023-11-21T12:01:24;100367.03;;;-8.64;66.02
77869;BME280;67231;59.144;37.934;2023-11-21T12:07:00;100364.50;;;-8.67;65.54
77869;BME280;67231;59.144;37.934;2023-11-21T12:09:31;100367.09;;;-8.68;65.87
77869;BME280;67231;59.144;37.934;2023-11-21T12:11:58;100375.69;;;-8.69;65.73
77869;BME280;67231;59.144;37.934;2023-11-21T12:14:26;100378.25;;;-8.69;66.16
77869;BME280;67231;59.144;37.934;2023-11-21T12:16:53;100380.84;;;-8.69;66.19
77869;BME280;67231;59.144;37.934;2023-11-21T12:19:20;100372.22;;;-8.68;66.29
77869;BME280;67231;59.144;37.934;2023-11-21T12:21:47;100368.75;;;-8.64;66.18
77869;BME280;67231;59.144;37.934;2023-11-21T12:24:14;100379.81;;;-8.59;66.56
77869;BME280;67231;59.144;37.934;2023-11-21T12:26:42;100386.66;;;-8.56;65.90
77869;BME280;67231;59.144;37.934;2023-11-21T12:29:10;100379.78;;;-8.56;65.87
77869;BME280;67231;59.144;37.934;2023-11-21T12:31:37;100382.34;;;-8.56;66.28
77869;BME280;67231;59.144;37.934;2023-11-21T12:34:04;100387.50;;;-8.56;66.66
77869;BME280;67231;59.144;37.934;2023-11-21T12:36:32;100385.75;;;-8.54;66.64
77869;BME280;67231;59.144;37.934;2023-11-21T12:39:00;100378.97;;;-8.58;66.94
77869;BME280;67231;59.144;37.934;2023-11-21T12:41:29;100388.38;;;-8.57;66.14
77869;BME280;67231;59.144;37.934;2023-11-21T12:43:56;100384.09;;;-8.58;66.55
77869;BME280;67231;59.144;37.934;2023-11-21T12:46:23;100376.44;;;-8.61;66.75
77869;BME280;67231;59.144;37.934;2023-11-21T12:48:53;100384.16;;;-8.63;66.60
77869;BME280;67231;59.144;37.934;2023-11-21T12:51:21;100388.50;;;-8.65;66.79
77869;BME280;67231;59.144;37.934;2023-11-21T12:53:48;100389.34;;;-8.64;67.18